createdAt,value
2018-02-25T00:01:25.755Z,103489.91
2018-02-25T00:03:51.912Z,103486.03
2018-02-25T00:06:18.135Z,103485.13
2018-02-25T00:08:44.325Z,103483.33
2018-02-25T00:11:10.509Z,103493.81
2018-02-25T00:13:36.745Z,103491.19
2018-02-25T00:16:02.904Z,103490.28
2018-02-25T00:18:29.082Z,103495.56
2018-02-25T00:20:55.284Z,103496.42
2018-02-25T00:23:21.491Z,103487.17
2018-02-25T00:25:47.728Z,103497.23
2018-02-25T00:28:13.902Z,103490.20
2018-02-25T00:30:40.083Z,103492.00
2018-02-25T00:33:06.265Z,103484.55
2018-02-25T00:35:32.454Z,103489.30
2018-02-25T00:37:58.691Z,103491.38
2018-02-25T00:40:24.856Z,103488.93
2018-02-25T00:42:51.044Z,103491.05
2018-02-25T00:45:17.263Z,103486.96
2018-02-25T00:47:43.420Z,103482.22
2018-02-25T00:50:09.917Z,103485.24
2018-02-25T00:52:36.451Z,103482.17
2018-02-25T00:55:02.665Z,103479.60
2018-02-25T00:57:28.832Z,103477.55
2018-02-25T00:59:55.045Z,103480.13
2018-02-25T01:02:21.570Z,103485.25
2018-02-25T01:04:47.813Z,103484.34
2018-02-25T01:07:13.991Z,103483.89
2018-02-25T01:09:40.155Z,103480.87
2018-02-25T01:12:06.392Z,103482.30
2018-02-25T01:14:38.731Z,103479.60
2018-02-25T01:17:05.287Z,103484.42
2018-02-25T01:19:31.536Z,103483.08
2018-02-25T01:21:57.699Z,103490.03
2018-02-25T01:24:29.857Z,103487.00
2018-02-25T01:26:56.045Z,103485.28
2018-02-25T01:29:22.232Z,103482.99
2018-02-25T01:31:48.412Z,103478.61
2018-02-25T01:34:14.640Z,103477.84
2018-02-25T01:36:40.819Z,103472.77
2018-02-25T01:39:06.980Z,103475.30
2018-02-25T01:41:33.186Z,103479.60
2018-02-25T01:43:59.348Z,103481.84
2018-02-25T01:46:25.554Z,103485.37
2018-02-25T01:48:51.729Z,103483.53
2018-02-25T01:51:17.916Z,103487.45
2018-02-25T01:53:44.118Z,103481.77
2018-02-25T01:56:10.313Z,103483.41
2018-02-25T01:58:36.495Z,103478.16
2018-02-25T02:01:02.731Z,103477.75
2018-02-25T02:03:28.908Z,103485.16
2018-02-25T02:05:55.138Z,103484.34
2018-02-25T02:08:21.606Z,103478.66
2018-02-25T02:10:48.072Z,103479.10
2018-02-25T02:13:14.246Z,103483.53
2018-02-25T02:15:40.428Z,103483.93
2018-02-25T02:18:06.934Z,103481.73
2018-02-25T02:20:33.116Z,103486.59
2018-02-25T02:22:59.455Z,103479.02
2018-02-25T02:25:25.615Z,103480.28
2018-02-25T02:27:52.046Z,103488.95
2018-02-25T02:30:18.253Z,103491.58
2018-02-25T02:32:44.418Z,103497.72
2018-02-25T02:35:10.941Z,103493.78
2018-02-25T02:37:37.145Z,103497.34
2018-02-25T02:40:03.297Z,103503.80
2018-02-25T02:42:29.533Z,103506.83
2018-02-25T02:44:55.707Z,103506.34
2018-02-25T02:47:21.891Z,103504.21
2018-02-25T02:49:48.109Z,103505.08
2018-02-25T02:52:14.275Z,103504.53
2018-02-25T02:54:40.464Z,103507.69
2018-02-25T02:57:06.671Z,103501.95
2018-02-25T02:59:32.887Z,103505.80
2018-02-25T03:01:59.051Z,103506.24
2018-02-25T03:04:25.285Z,103500.60
2018-02-25T03:06:51.822Z,103503.72
2018-02-25T03:09:18.012Z,103491.03
2018-02-25T03:11:44.191Z,103497.98
2018-02-25T03:14:10.349Z,103499.20
2018-02-25T03:16:36.527Z,103499.66
2018-02-25T03:19:02.679Z,103496.63
2018-02-25T03:21:28.896Z,103492.30
2018-02-25T03:23:55.052Z,103489.67
2018-02-25T03:26:21.275Z,103489.73
2018-02-25T03:28:47.506Z,103482.41
2018-02-25T03:31:13.651Z,103481.95
2018-02-25T03:33:40.208Z,103476.31
2018-02-25T03:36:06.396Z,103474.59
2018-02-25T03:38:32.572Z,103477.58
2018-02-25T03:40:58.792Z,103473.61
2018-02-25T03:43:24.992Z,103472.83
2018-02-25T03:45:51.449Z,103477.21
2018-02-25T03:48:17.658Z,103471.08
2018-02-25T03:50:43.814Z,103479.34
2018-02-25T03:53:09.982Z,103471.39
2018-02-25T03:55:36.228Z,103470.90
2018-02-25T03:58:02.470Z,103469.22
2018-02-25T04:00:28.608Z,103474.06
2018-02-25T04:02:54.765Z,103470.54
2018-02-25T04:05:20.972Z,103482.73
2018-02-25T04:07:47.404Z,103481.38
2018-02-25T04:10:13.581Z,103484.85
2018-02-25T04:12:40.068Z,103483.13
2018-02-25T04:15:06.272Z,103480.87
2018-02-25T04:17:32.465Z,103484.44
2018-02-25T04:19:58.644Z,103489.19
2018-02-25T04:22:24.820Z,103488.36
2018-02-25T04:24:51.003Z,103491.75
2018-02-25T04:27:17.144Z,103486.97
2018-02-25T04:29:43.662Z,103477.81
2018-02-25T04:32:10.095Z,103478.70
2018-02-25T04:34:36.265Z,103481.69
2018-02-25T04:37:02.527Z,103493.38
2018-02-25T04:39:28.708Z,103485.03
2018-02-25T04:41:54.889Z,103493.33
2018-02-25T04:44:21.102Z,103495.09
2018-02-25T04:46:47.279Z,103490.31
2018-02-25T04:49:13.432Z,103489.91
2018-02-25T04:51:39.651Z,103493.78
2018-02-25T04:54:05.816Z,103498.11
2018-02-25T04:56:32.072Z,103490.31
2018-02-25T04:58:58.501Z,103490.31
2018-02-25T05:01:24.787Z,103495.09
2018-02-25T05:03:50.964Z,103487.52
2018-02-25T05:06:17.389Z,103486.61
2018-02-25T05:08:43.670Z,103496.66
2018-02-25T05:11:09.828Z,103491.84
2018-02-25T05:13:36.283Z,103498.89
2018-02-25T05:16:02.488Z,103498.92
2018-02-25T05:18:28.657Z,103503.31
2018-02-25T05:20:54.824Z,103497.63
2018-02-25T05:23:21.051Z,103504.66
2018-02-25T05:25:47.340Z,103499.42
2018-02-25T05:28:13.532Z,103505.16
2018-02-25T05:30:39.732Z,103508.59
2018-02-25T05:33:05.928Z,103502.09
2018-02-25T05:35:32.108Z,103502.50
2018-02-25T05:37:58.324Z,103501.33
2018-02-25T05:40:24.501Z,103499.74
2018-02-25T05:42:50.655Z,103500.60
2018-02-25T05:45:16.840Z,103502.69
2018-02-25T05:47:42.978Z,103504.08
2018-02-25T05:50:09.174Z,103506.73
2018-02-25T05:52:35.324Z,103501.50
2018-02-25T05:55:01.528Z,103501.05
2018-02-25T05:57:27.782Z,103500.23
2018-02-25T05:59:53.991Z,103502.37
2018-02-25T06:02:20.178Z,103507.15
2018-02-25T06:04:46.354Z,103500.60
2018-02-25T06:07:12.531Z,103505.43
2018-02-25T06:09:38.755Z,103505.43
2018-02-25T06:12:04.918Z,103505.43
2018-02-25T06:14:31.102Z,103500.20
2018-02-25T06:16:57.288Z,103506.24
2018-02-25T06:19:23.449Z,103510.17
2018-02-25T06:21:49.621Z,103503.18
2018-02-25T06:24:15.814Z,103514.55
2018-02-25T06:26:42.041Z,103512.29
2018-02-25T06:29:08.276Z,103514.96
2018-02-25T06:31:34.759Z,103511.44
2018-02-25T06:34:00.944Z,103511.08
2018-02-25T06:36:27.123Z,103513.73
2018-02-25T06:38:53.380Z,103511.97
2018-02-25T06:41:19.546Z,103511.94
2018-02-25T06:43:45.710Z,103514.19
2018-02-25T06:46:11.903Z,103511.48
2018-02-25T06:48:38.355Z,103510.67
2018-02-25T06:51:04.535Z,103509.45
2018-02-25T06:53:30.686Z,103507.28
2018-02-25T06:55:56.904Z,103511.62
2018-02-25T06:58:23.082Z,103507.28
2018-02-25T07:00:49.236Z,103510.03
2018-02-25T07:03:15.469Z,103506.97
2018-02-25T07:05:41.652Z,103521.23
2018-02-25T07:08:07.848Z,103523.31
2018-02-25T07:10:34.078Z,103518.94
2018-02-25T07:13:00.256Z,103522.91
2018-02-25T07:15:26.480Z,103522.59
2018-02-25T07:17:52.702Z,103527.14
2018-02-25T07:20:19.226Z,103527.59
2018-02-25T07:22:45.396Z,103529.44
2018-02-25T07:25:11.759Z,103524.20
2018-02-25T07:27:38.215Z,103526.81
2018-02-25T07:30:04.411Z,103532.05
2018-02-25T07:32:30.877Z,103529.08
2018-02-25T07:34:57.103Z,103534.80
2018-02-25T07:37:23.275Z,103530.88
2018-02-25T07:39:49.450Z,103543.11
2018-02-25T07:42:15.734Z,103534.08
2018-02-25T07:44:41.894Z,103536.74
2018-02-25T07:47:08.312Z,103532.50
2018-02-25T07:49:34.511Z,103531.72
2018-02-25T07:52:00.713Z,103534.42
2018-02-25T07:54:26.976Z,103537.91
2018-02-25T07:56:53.215Z,103533.56
2018-02-25T07:59:19.398Z,103531.89
2018-02-25T08:01:45.925Z,103535.37
2018-02-25T08:04:12.117Z,103536.23
2018-02-25T08:06:38.302Z,103531.48
2018-02-25T08:09:04.527Z,103535.98
2018-02-25T08:11:30.687Z,103533.81
2018-02-25T08:13:56.935Z,103533.38
2018-02-25T08:16:23.088Z,103532.51
2018-02-25T08:18:49.244Z,103539.55
2018-02-25T08:21:15.750Z,103542.14
2018-02-25T08:23:41.974Z,103545.70
2018-02-25T08:26:08.128Z,103542.30
2018-02-25T08:28:34.330Z,103544.97
2018-02-25T08:31:00.582Z,103540.95
2018-02-25T08:33:26.740Z,103535.67
2018-02-25T08:35:52.965Z,103541.84
2018-02-25T08:38:19.144Z,103536.61
2018-02-25T08:40:45.308Z,103536.07
2018-02-25T08:43:11.905Z,103539.64
2018-02-25T08:45:44.239Z,103537.52
2018-02-25T08:48:10.439Z,103540.63
2018-02-25T08:50:36.588Z,103543.69
2018-02-25T08:53:02.784Z,103538.00
2018-02-25T08:55:29.000Z,103536.61
2018-02-25T08:57:55.178Z,103539.59
2018-02-25T09:00:21.456Z,103532.67
2018-02-25T09:02:47.701Z,103533.12
2018-02-25T09:05:14.136Z,103533.94
2018-02-25T09:07:40.638Z,103528.34
2018-02-25T09:10:06.881Z,103527.06
2018-02-25T09:12:33.042Z,103527.47
2018-02-25T09:14:59.224Z,103530.02
2018-02-25T09:17:25.439Z,103519.94
2018-02-25T09:19:51.624Z,103523.88
2018-02-25T09:22:17.835Z,103520.72
2018-02-25T09:24:43.996Z,103525.19
2018-02-25T09:27:10.176Z,103521.75
2018-02-25T09:29:36.391Z,103511.80
2018-02-25T09:32:02.640Z,103510.15
2018-02-25T09:34:28.820Z,103511.17
2018-02-25T09:36:54.985Z,103519.16
2018-02-25T09:39:21.210Z,103514.28
2018-02-25T09:41:47.360Z,103514.85
2018-02-25T09:44:13.565Z,103510.58
2018-02-25T09:46:39.742Z,103511.45
2018-02-25T09:49:06.085Z,103508.11
2018-02-25T09:51:32.544Z,103504.67
2018-02-25T09:53:58.710Z,103508.68
2018-02-25T09:56:24.875Z,103515.34
2018-02-25T09:58:51.075Z,103509.28
2018-02-25T10:01:17.654Z,103503.55
2018-02-25T10:03:43.883Z,103501.75
2018-02-25T10:06:10.075Z,103501.37
2018-02-25T10:08:36.290Z,103501.86
2018-02-25T10:11:02.471Z,103495.72
2018-02-25T10:13:29.006Z,103495.27
2018-02-25T10:15:55.181Z,103497.48
2018-02-25T10:18:21.355Z,103498.86
2018-02-25T10:20:47.542Z,103494.59
2018-02-25T10:23:13.896Z,103487.16
2018-02-25T10:25:40.119Z,103480.61
2018-02-25T10:28:06.273Z,103478.50
2018-02-25T10:30:32.801Z,103477.33
2018-02-25T10:32:59.337Z,103475.19
2018-02-25T10:35:25.508Z,103477.02
2018-02-25T10:37:51.681Z,103466.14
2018-02-25T10:40:17.900Z,103470.59
2018-02-25T10:42:44.105Z,103460.97
2018-02-25T10:45:10.319Z,103459.20
2018-02-25T10:47:36.812Z,103464.87
2018-02-25T10:50:03.043Z,103460.03
2018-02-25T10:52:29.265Z,103461.70
2018-02-25T10:54:55.697Z,103455.09
2018-02-25T10:57:21.846Z,103451.13
2018-02-25T10:59:48.105Z,103448.92
2018-02-25T11:02:14.296Z,103448.86
2018-02-25T11:04:40.708Z,103446.20
2018-02-25T11:07:06.888Z,103444.13
2018-02-25T11:09:33.103Z,103439.30
2018-02-25T11:11:59.262Z,103438.81
2018-02-25T11:14:25.445Z,103437.43
2018-02-25T11:16:51.672Z,103433.88
2018-02-25T11:19:17.843Z,103433.42
2018-02-25T11:21:44.046Z,103430.77
2018-02-25T11:24:10.254Z,103434.33
2018-02-25T11:26:36.446Z,103432.08
2018-02-25T11:29:02.677Z,103433.70
2018-02-25T11:31:29.074Z,103428.28
2018-02-25T11:33:55.209Z,103426.00
2018-02-25T11:36:21.431Z,103427.31
2018-02-25T11:38:47.615Z,103418.93
2018-02-25T11:41:14.135Z,103426.80
2018-02-25T11:43:40.324Z,103415.78
2018-02-25T11:46:06.528Z,103424.55
2018-02-25T11:48:32.744Z,103415.48
2018-02-25T11:50:58.987Z,103409.45
2018-02-25T11:53:25.192Z,103411.30
2018-02-25T11:55:51.712Z,103405.20
2018-02-25T11:58:18.180Z,103406.55
2018-02-25T12:00:44.337Z,103410.89
2018-02-25T12:03:10.580Z,103405.61
2018-02-25T12:05:36.758Z,103406.51
2018-02-25T12:08:03.258Z,103403.37
2018-02-25T12:10:29.456Z,103407.41
2018-02-25T12:12:55.615Z,103402.30
2018-02-25T12:15:21.791Z,103402.30
2018-02-25T12:17:47.983Z,103398.02
2018-02-25T12:20:14.240Z,103399.30
2018-02-25T12:22:40.412Z,103399.13
2018-02-25T12:25:06.567Z,103406.61
2018-02-25T12:27:32.759Z,103406.64
2018-02-25T12:29:59.212Z,103401.95
2018-02-25T12:32:25.747Z,103402.11
2018-02-25T12:34:52.176Z,103395.72
2018-02-25T12:37:18.358Z,103395.30
2018-02-25T12:39:44.588Z,103385.70
2018-02-25T12:42:11.072Z,103387.43
2018-02-25T12:44:37.251Z,103393.00
2018-02-25T12:47:03.465Z,103394.94
2018-02-25T12:49:29.639Z,103393.78
2018-02-25T12:51:56.080Z,103397.92
2018-02-25T12:54:22.616Z,103395.16
2018-02-25T12:56:49.048Z,103387.19
2018-02-25T12:59:15.288Z,103384.53
2018-02-25T13:01:41.470Z,103380.66
2018-02-25T13:04:07.941Z,103385.56
2018-02-25T13:06:34.169Z,103376.42
2018-02-25T13:09:00.345Z,103374.73
2018-02-25T13:11:26.832Z,103378.25
2018-02-25T13:13:53.032Z,103374.36
2018-02-25T13:16:25.284Z,103378.25
2018-02-25T13:18:51.492Z,103369.42
2018-02-25T13:21:17.660Z,103368.94
2018-02-25T13:23:43.874Z,103369.38
2018-02-25T13:26:10.097Z,103376.46
2018-02-25T13:28:36.651Z,103372.52
2018-02-25T13:31:03.071Z,103373.84
2018-02-25T13:33:29.570Z,103369.05
2018-02-25T13:35:56.072Z,103373.84
2018-02-25T13:38:22.239Z,103362.59
2018-02-25T13:40:48.438Z,103364.83
2018-02-25T13:43:14.652Z,103360.83
2018-02-25T13:45:40.815Z,103359.07
2018-02-25T13:48:07.317Z,103360.69
2018-02-25T13:50:33.523Z,103368.08
2018-02-25T13:52:59.979Z,103368.00
2018-02-25T13:55:26.139Z,103370.25
2018-02-25T13:57:52.328Z,103362.45
2018-02-25T14:00:18.530Z,103362.14
2018-02-25T14:02:44.692Z,103366.59
2018-02-25T14:05:10.930Z,103371.52
2018-02-25T14:07:37.098Z,103363.66
2018-02-25T14:10:03.294Z,103361.95
2018-02-25T14:12:29.835Z,103365.09
2018-02-25T14:14:56.001Z,103364.17
2018-02-25T14:17:22.159Z,103361.06
2018-02-25T14:19:48.357Z,103364.17
2018-02-25T14:22:14.700Z,103358.09
2018-02-25T14:24:40.919Z,103364.69
2018-02-25T14:27:07.381Z,103365.20
2018-02-25T14:29:33.623Z,103359.09
2018-02-25T14:31:59.788Z,103359.02
2018-02-25T14:34:26.271Z,103360.27
2018-02-25T14:36:52.493Z,103366.00
2018-02-25T14:39:19.033Z,103370.38
2018-02-25T14:41:45.279Z,103368.61
2018-02-25T14:44:11.453Z,103360.72
2018-02-25T14:46:37.633Z,103358.61
2018-02-25T14:49:03.858Z,103357.39
2018-02-25T14:51:30.040Z,103352.91
2018-02-25T14:53:56.499Z,103353.40
2018-02-25T14:56:22.688Z,103349.13
2018-02-25T14:58:48.870Z,103347.73
2018-02-25T15:01:15.097Z,103349.69
2018-02-25T15:03:41.256Z,103350.64
2018-02-25T15:06:07.477Z,103355.22
2018-02-25T15:08:33.692Z,103355.78
2018-02-25T15:10:59.891Z,103348.72
2018-02-25T15:13:26.099Z,103343.12
2018-02-25T15:15:52.551Z,103343.70
2018-02-25T15:18:19.088Z,103347.50
2018-02-25T15:20:45.637Z,103346.77
2018-02-25T15:23:11.821Z,103342.34
2018-02-25T15:25:38.000Z,103352.10
2018-02-25T15:28:04.225Z,103342.42
2018-02-25T15:30:30.687Z,103340.37
2018-02-25T15:32:56.835Z,103339.08
2018-02-25T15:35:23.060Z,103333.77
2018-02-25T15:37:49.249Z,103337.03
2018-02-25T15:40:15.484Z,103341.98
2018-02-25T15:42:41.661Z,103343.06
2018-02-25T15:45:07.842Z,103335.42
2018-02-25T15:47:34.050Z,103337.11
2018-02-25T15:50:00.349Z,103342.39
2018-02-25T15:52:26.794Z,103337.11
2018-02-25T15:54:52.976Z,103339.41
2018-02-25T15:57:19.563Z,103337.84
2018-02-25T15:59:45.737Z,103337.75
2018-02-25T16:02:11.957Z,103337.15
2018-02-25T16:04:38.452Z,103336.53
2018-02-25T16:07:04.982Z,103335.37
2018-02-25T16:09:31.217Z,103339.09
2018-02-25T16:11:57.703Z,103341.78
2018-02-25T16:14:23.934Z,103348.43
2018-02-25T16:16:50.123Z,103341.80
2018-02-25T16:19:16.638Z,103335.14
2018-02-25T16:21:42.863Z,103341.55
2018-02-25T16:24:09.163Z,103343.25
2018-02-25T16:26:35.636Z,103345.38
2018-02-25T16:29:02.110Z,103343.09
2018-02-25T16:31:28.316Z,103339.05
2018-02-25T16:33:54.512Z,103347.12
2018-02-25T16:36:20.721Z,103346.44
2018-02-25T16:38:46.918Z,103342.73
2018-02-25T16:41:13.226Z,103340.44
2018-02-25T16:43:39.447Z,103344.15
2018-02-25T16:46:05.619Z,103352.27
2018-02-25T16:48:31.848Z,103352.17
2018-02-25T16:50:58.039Z,103351.52
2018-02-25T16:53:24.227Z,103361.83
2018-02-25T16:55:50.777Z,103359.14
2018-02-25T16:58:16.937Z,103360.79
2018-02-25T17:00:43.157Z,103361.13
2018-02-25T17:03:09.342Z,103365.41
2018-02-25T17:05:35.835Z,103367.02
2018-02-25T17:08:01.837Z,103371.36
2018-02-25T17:10:28.016Z,103369.97
2018-02-25T17:12:54.218Z,103373.95
2018-02-25T17:15:20.512Z,103377.02
2018-02-25T17:17:46.747Z,103382.63
2018-02-25T17:20:12.903Z,103379.92
2018-02-25T17:22:39.121Z,103383.41
2018-02-25T17:25:05.323Z,103387.27
2018-02-25T17:27:31.543Z,103387.15
2018-02-25T17:29:57.749Z,103391.52
2018-02-25T17:32:23.988Z,103387.22
2018-02-25T17:34:50.217Z,103386.66
2018-02-25T17:37:16.380Z,103389.23
2018-02-25T17:39:42.630Z,103388.38
2018-02-25T17:42:08.818Z,103387.06
2018-02-25T17:44:35.001Z,103387.44
2018-02-25T17:47:01.265Z,103381.34
2018-02-25T17:49:27.478Z,103385.27
2018-02-25T17:51:54.032Z,103386.54
2018-02-25T17:54:20.235Z,103386.50
2018-02-25T17:56:46.459Z,103383.77
2018-02-25T17:59:12.687Z,103381.10
2018-02-25T18:01:38.885Z,103380.20
2018-02-25T18:04:05.072Z,103382.41
2018-02-25T18:06:31.329Z,103378.37
2018-02-25T18:08:57.565Z,103385.73
2018-02-25T18:11:23.782Z,103380.91
2018-02-25T18:13:49.995Z,103382.66
2018-02-25T18:16:16.192Z,103375.63
2018-02-25T18:18:42.361Z,103377.34
2018-02-25T18:21:08.582Z,103378.25
2018-02-25T18:23:34.799Z,103381.23
2018-02-25T18:26:01.320Z,103374.64
2018-02-25T18:28:27.489Z,103378.53
2018-02-25T18:30:53.672Z,103381.56
2018-02-25T18:33:19.969Z,103378.49
2018-02-25T18:35:46.214Z,103378.04
2018-02-25T18:38:12.400Z,103378.50
2018-02-25T18:40:38.585Z,103374.03
2018-02-25T18:43:04.759Z,103371.86
2018-02-25T18:45:32.479Z,103373.54
2018-02-25T18:47:58.701Z,103372.68
2018-02-25T18:50:26.734Z,103367.45
2018-02-25T18:52:54.453Z,103380.05
2018-02-25T18:55:20.642Z,103377.47
2018-02-25T18:57:47.104Z,103377.52
2018-02-25T19:00:13.323Z,103366.09
2018-02-25T19:02:39.532Z,103368.67
2018-02-25T19:05:05.786Z,103372.11
2018-02-25T19:07:32.035Z,103377.71
2018-02-25T19:09:58.316Z,103370.34
2018-02-25T19:12:24.545Z,103372.06
2018-02-25T19:14:50.742Z,103377.26
2018-02-25T19:17:16.953Z,103380.77
2018-02-25T19:19:43.171Z,103374.64
2018-02-25T19:22:09.356Z,103386.06
2018-02-25T19:24:35.548Z,103383.92
2018-02-25T19:27:01.729Z,103394.45
2018-02-25T19:29:28.079Z,103392.59
2018-02-25T19:31:54.276Z,103392.11
2018-02-25T19:34:20.835Z,103393.78
2018-02-25T19:36:53.305Z,103395.05
2018-02-25T19:39:25.487Z,103401.19
2018-02-25T19:41:52.662Z,103399.46
2018-02-25T19:44:19.162Z,103402.08
2018-02-25T19:46:45.398Z,103406.42
2018-02-25T19:49:11.590Z,103413.81
2018-02-25T19:51:37.751Z,103410.79
2018-02-25T19:54:03.931Z,103406.50
2018-02-25T19:56:30.138Z,103404.83
2018-02-25T19:58:56.294Z,103405.69
2018-02-25T20:01:22.752Z,103405.73
2018-02-25T20:03:49.293Z,103415.80
2018-02-25T20:06:15.496Z,103406.59
2018-02-25T20:08:42.055Z,103406.50
2018-02-25T20:11:08.256Z,103407.41
2018-02-25T20:13:34.451Z,103412.23
2018-02-25T20:16:00.945Z,103407.77
2018-02-25T20:18:27.119Z,103400.04
2018-02-25T20:20:53.709Z,103397.42
2018-02-25T20:23:19.900Z,103394.19
2018-02-25T20:25:46.089Z,103389.03
2018-02-25T20:28:12.318Z,103392.11
2018-02-25T20:30:38.500Z,103385.97
2018-02-25T20:33:05.664Z,103383.31
2018-02-25T20:35:31.901Z,103384.58
2018-02-25T20:37:58.069Z,103384.20
2018-02-25T20:40:24.559Z,103392.06
2018-02-25T20:42:50.753Z,103390.27
2018-02-25T20:45:16.920Z,103392.02
2018-02-25T20:47:43.155Z,103386.74
2018-02-25T20:50:09.311Z,103388.05
2018-02-25T20:52:35.472Z,103391.08
2018-02-25T20:55:01.680Z,103391.12
2018-02-25T20:57:27.865Z,103385.72
2018-02-25T20:59:54.072Z,103388.33
2018-02-25T21:02:20.252Z,103395.00
2018-02-25T21:04:46.423Z,103390.17
2018-02-25T21:07:12.964Z,103394.47
2018-02-25T21:09:39.166Z,103391.84
2018-02-25T21:12:05.392Z,103394.06
2018-02-25T21:14:31.585Z,103395.77
2018-02-25T21:16:57.808Z,103401.50
2018-02-25T21:19:23.966Z,103396.27
2018-02-25T21:21:50.152Z,103400.16
2018-02-25T21:24:16.663Z,103405.43
2018-02-25T21:26:43.094Z,103404.16
2018-02-25T21:29:09.281Z,103406.29
2018-02-25T21:31:35.473Z,103407.96
2018-02-25T21:34:01.881Z,103405.42
2018-02-25T21:36:28.061Z,103408.86
2018-02-25T21:38:54.215Z,103404.94
2018-02-25T21:41:20.428Z,103404.97
2018-02-25T21:43:46.895Z,103407.14
2018-02-25T21:46:13.051Z,103406.24
2018-02-25T21:48:39.307Z,103408.99
2018-02-25T21:51:05.469Z,103408.17
2018-02-25T21:53:38.159Z,103411.20
2018-02-25T21:56:10.507Z,103412.09
2018-02-25T21:58:43.007Z,103407.59
2018-02-25T22:01:15.480Z,103408.37
2018-02-25T22:03:41.809Z,103408.77
2018-02-25T22:06:08.241Z,103400.52
2018-02-25T22:08:34.502Z,103400.92
2018-02-25T22:11:00.718Z,103403.90
2018-02-25T22:13:26.917Z,103409.09
2018-02-25T22:15:53.152Z,103405.25
2018-02-25T22:18:19.343Z,103405.30
2018-02-25T22:20:45.517Z,103406.56
2018-02-25T22:23:12.048Z,103412.38
2018-02-25T22:25:38.209Z,103411.48
2018-02-25T22:28:04.389Z,103409.17
2018-02-25T22:30:30.640Z,103413.01
2018-02-25T22:32:56.805Z,103414.86
2018-02-25T22:35:23.014Z,103411.39
2018-02-25T22:37:49.259Z,103412.25
2018-02-25T22:40:15.448Z,103415.86
2018-02-25T22:42:41.866Z,103421.12
2018-02-25T22:45:08.083Z,103411.92
2018-02-25T22:47:34.257Z,103413.68
2018-02-25T22:50:00.477Z,103418.10
2018-02-25T22:52:26.658Z,103426.33
2018-02-25T22:54:52.903Z,103422.48
2018-02-25T22:57:19.051Z,103424.28
2018-02-25T22:59:45.229Z,103422.13
2018-02-25T23:02:11.442Z,103421.58
2018-02-25T23:04:37.598Z,103418.96
2018-02-25T23:07:03.768Z,103421.27
2018-02-25T23:09:29.967Z,103417.38
2018-02-25T23:11:56.151Z,103414.31
2018-02-25T23:14:22.360Z,103417.75
2018-02-25T23:16:48.646Z,103419.05
2018-02-25T23:19:14.828Z,103422.08
2018-02-25T23:21:40.980Z,103426.98
2018-02-25T23:24:07.170Z,103418.77
2018-02-25T23:26:33.326Z,103426.18
2018-02-25T23:28:59.793Z,103427.98
2018-02-25T23:31:25.943Z,103430.52
2018-02-25T23:33:52.132Z,103435.20
2018-02-25T23:36:18.312Z,103434.27
2018-02-25T23:38:44.518Z,103436.97
2018-02-25T23:41:10.676Z,103437.05
2018-02-25T23:43:36.859Z,103442.34
2018-02-25T23:46:03.012Z,103437.59
2018-02-25T23:48:29.218Z,103438.12
2018-02-25T23:50:55.375Z,103434.03
2018-02-25T23:53:21.531Z,103434.08
2018-02-25T23:55:47.713Z,103431.45
2018-02-25T23:58:13.863Z,103431.91
